Time;durP1;ratioP1;P1;durP2;ratioP2;P2;SDS_P1;SDS_P2;PMS_P1;PMS_P2;Temp;Humidity;BMP_temperature;BMP_pressure;BME280_temperature;BME280_humidity;BME280_pressure;Samples;Min_cycle;Max_cycle;Signal;HPM_P1;HPM_P2
2022/03/18 00:00:18;;;;;;;36.00;19.95;;;;;;;4.23;57.99;101479.22;4936082;29;20028;-80
2022/03/18 00:02:45;;;;;;;34.20;21.40;;;;;;;4.23;57.71;101482.66;4935534;29;20103;-79
2022/03/18 00:05:11;;;;;;;34.83;19.20;;;;;;;4.11;58.19;101473.94;4934269;29;20400;-80
2022/03/18 00:07:38;;;;;;;33.03;19.88;;;;;;;4.15;58.14;101480.84;4934450;29;20024;-80
2022/03/18 00:10:04;;;;;;;39.17;23.05;;;;;;;4.03;58.13;101466.13;4934234;29;20032;-79
2022/03/18 00:12:29;;;;;;;43.35;23.80;;;;;;;4.10;58.24;101479.97;4934134;29;20058;-80
2022/03/18 00:14:55;;;;;;;33.85;20.77;;;;;;;4.08;58.20;101477.34;4935433;29;20039;-80
2022/03/18 00:17:20;;;;;;;35.55;22.48;;;;;;;4.08;57.84;101485.09;4935319;29;20082;-80
2022/03/18 00:19:45;;;;;;;42.65;23.33;;;;;;;4.07;58.01;101488.53;4933926;29;20031;-80
2022/03/18 00:22:12;;;;;;;35.45;19.55;;;;;;;3.90;58.07;101457.41;4934019;28;20051;-80
2022/03/18 00:24:38;;;;;;;36.17;20.38;;;;;;;4.01;57.96;101470.44;4935038;29;20031;-79
2022/03/18 00:27:04;;;;;;;34.10;21.15;;;;;;;3.97;57.77;101472.09;4935422;29;20032;-80
2022/03/18 00:29:30;;;;;;;35.10;21.13;;;;;;;4.01;57.48;101483.31;4934064;29;20020;-80
2022/03/18 00:31:56;;;;;;;35.22;19.70;;;;;;;4.04;57.48;101485.03;4935044;29;20035;-79
2022/03/18 00:34:22;;;;;;;35.22;20.73;;;;;;;4.03;57.41;101480.75;4933904;29;20633;-80
2022/03/18 00:36:48;;;;;;;36.70;21.77;;;;;;;3.99;57.50;101483.28;4933575;29;20031;-80
2022/03/18 00:39:13;;;;;;;31.10;19.92;;;;;;;3.98;57.19;101480.69;4935215;29;20027;-80
2022/03/18 00:41:39;;;;;;;33.65;20.55;;;;;;;3.99;57.07;101493.59;4933676;29;20023;-80
2022/03/18 00:44:05;;;;;;;39.58;23.17;;;;;;;3.97;56.97;101484.13;4933857;29;20027;-79
2022/03/18 00:46:30;;;;;;;31.55;20.10;;;;;;;3.91;56.92;101482.34;4934831;29;20130;-79
2022/03/18 00:52:02;;;;;;;46.03;23.17;;;;;;;3.79;57.22;101465.88;4934880;29;20055;-80
2022/03/18 00:54:28;;;;;;;38.20;21.10;;;;;;;3.77;57.57;101478.78;4935213;29;20032;-80
2022/03/18 00:56:53;;;;;;;41.03;23.67;;;;;;;3.80;57.55;101489.13;4933364;28;20036;-80
2022/03/18 00:59:19;;;;;;;37.17;21.50;;;;;;;3.79;57.58;101489.94;4933485;28;20031;-80
2022/03/18 01:01:44;;;;;;;43.28;22.67;;;;;;;3.76;57.43;101489.94;4933258;29;20035;-79
2022/03/18 01:04:09;;;;;;;40.08;21.88;;;;;;;3.73;57.81;101488.19;4933352;28;20082;-80
2022/03/18 01:06:35;;;;;;;37.75;22.10;;;;;;;3.62;57.60;101474.31;4934512;29;20094;-79
2022/03/18 01:09:04;;;;;;;37.80;21.52;;;;;;;3.72;57.67;101498.47;4933630;29;20036;-80
2022/03/18 01:11:31;;;;;;;34.00;21.02;;;;;;;3.70;57.69;101500.16;4933447;29;20040;-80
2022/03/18 01:13:56;;;;;;;34.97;21.85;;;;;;;3.65;57.55;101502.69;4932960;29;20529;-79
2022/03/18 01:16:22;;;;;;;37.88;21.02;;;;;;;3.66;57.36;101500.97;4933372;29;20110;-80
2022/03/18 01:18:47;;;;;;;36.33;22.05;;;;;;;3.56;57.63;101483.69;4937032;29;20028;-80
2022/03/18 01:21:13;;;;;;;38.08;20.52;;;;;;;3.45;57.65;101475.81;4938596;29;20020;-79
2022/03/18 01:23:38;;;;;;;39.53;23.08;;;;;;;3.57;57.57;101503.44;4937131;29;20034;-79
2022/03/18 01:26:04;;;;;;;34.85;21.08;;;;;;;3.59;57.99;101499.19;4938543;29;20035;-79
2022/03/18 01:28:30;;;;;;;36.47;23.17;;;;;;;3.53;57.76;101494.81;4937387;29;20115;-79
2022/03/18 01:30:56;;;;;;;41.72;23.55;;;;;;;3.47;58.26;101500.78;4936812;29;20032;-79
2022/03/18 01:33:21;;;;;;;40.90;23.15;;;;;;;3.49;58.15;101500.78;4937318;29;20036;-80
2022/03/18 01:35:46;;;;;;;32.38;20.67;;;;;;;3.45;58.41;101504.16;4936961;29;20024;-80
2022/03/18 01:38:12;;;;;;;36.20;22.25;;;;;;;3.40;58.63;101501.53;4937038;29;20388;-80
2022/03/18 01:40:38;;;;;;;39.05;22.10;;;;;;;3.40;58.45;101500.66;4938100;29;20027;-80
2022/03/18 01:43:10;;;;;;;38.25;21.38;;;;;;;3.39;59.13;101514.41;4938167;29;20142;-79
2022/03/18 01:45:35;;;;;;;57.47;30.30;;;;;;;3.29;58.62;101517.69;4938320;29;20032;-80
2022/03/18 01:48:02;;;;;;;38.72;23.48;;;;;;;3.30;58.94;101522.88;4938121;29;20031;-79
2022/03/18 01:50:27;;;;;;;45.42;24.02;;;;;;;3.30;59.31;101538.31;4938181;29;20035;-80
2022/03/18 01:52:53;;;;;;;44.17;25.45;;;;;;;3.22;59.21;101520.19;4937753;29;20428;-79
2022/03/18 01:55:23;;;;;;;45.38;25.15;;;;;;;3.18;59.13;101523.56;4936664;28;20035;-79
2022/03/18 01:57:49;;;;;;;42.03;24.65;;;;;;;3.03;59.22;101509.63;4937576;29;20035;-79
2022/03/18 02:00:14;;;;;;;43.33;24.15;;;;;;;3.11;59.41;101536.34;4936584;29;20024;-79
2022/03/18 02:02:40;;;;;;;39.80;24.08;;;;;;;3.07;59.41;101534.56;4936670;28;20544;-79
2022/03/18 02:05:07;;;;;;;34.67;21.77;;;;;;;3.00;59.40;101529.34;4936817;29;20110;-79
2022/03/18 02:07:32;;;;;;;37.65;22.45;;;;;;;2.96;58.93;101529.28;4954320;29;20043;-79
2022/03/18 02:09:58;;;;;;;43.67;22.23;;;;;;;3.01;58.63;101543.06;4938112;29;20074;-79
2022/03/18 02:12:24;;;;;;;38.05;21.85;;;;;;;2.98;58.47;101540.44;4954336;28;20704;-79
2022/03/18 02:14:50;;;;;;;36.60;22.67;;;;;;;2.97;58.63;101536.16;4954674;28;20035;-80
2022/03/18 02:17:17;;;;;;;38.75;21.48;;;;;;;2.98;58.25;101549.03;4938306;29;20051;-79
2022/03/18 02:19:45;;;;;;;38.65;21.98;;;;;;;2.92;58.51;101536.09;4937973;29;20027;-79
2022/03/18 02:22:18;;;;;;;37.22;23.15;;;;;;;2.93;57.96;101549.81;4954088;28;20039;-80
2022/03/18 02:24:46;;;;;;;41.28;22.55;;;;;;;2.90;58.33;101552.31;4937894;29;20050;-80
2022/03/18 02:27:12;;;;;;;34.45;20.42;;;;;;;2.83;58.14;101541.09;4954347;29;20047;-80
2022/03/18 02:29:39;;;;;;;36.47;22.15;;;;;;;2.85;58.01;101556.53;4953064;28;20035;-80
2022/03/18 02:32:05;;;;;;;38.40;21.65;;;;;;;2.83;58.25;101558.25;4954410;29;20105;-79
2022/03/18 02:34:32;;;;;;;36.60;20.30;;;;;;;2.79;57.88;101557.31;4953981;28;20086;-79
2022/03/18 02:36:58;;;;;;;36.42;20.63;;;;;;;2.73;57.65;101552.94;4937706;29;20133;-80
2022/03/18 02:39:24;;;;;;;34.15;20.13;;;;;;;2.78;57.60;101563.28;4938355;29;20187;-80
2022/03/18 02:41:49;;;;;;;40.22;19.80;;;;;;;2.74;57.75;101556.41;4936985;29;20027;-80
2022/03/18 02:44:15;;;;;;;31.08;18.00;;;;;;;2.71;57.36;101559.78;4937101;29;20028;-80
2022/03/18 02:46:41;;;;;;;31.48;19.40;;;;;;;2.69;57.65;101564.00;4935646;29;20534;-79
2022/03/18 02:49:07;;;;;;;35.25;19.30;;;;;;;2.64;57.49;101562.22;4935971;29;20084;-80
2022/03/18 02:51:36;;;;;;;37.83;19.55;;;;;;;2.54;57.35;101555.19;4935768;29;20549;-80
2022/03/18 02:54:01;;;;;;;32.38;18.08;;;;;;;2.57;57.48;101568.09;4953250;28;20043;-79
2022/03/18 02:56:27;;;;;;;31.13;19.45;;;;;;;2.55;57.37;101570.66;4937452;28;20046;-79
2022/03/18 02:58:52;;;;;;;36.42;20.02;;;;;;;2.54;57.60;101570.63;4937223;29;20124;-80
2022/03/18 03:01:18;;;;;;;30.40;18.10;;;;;;;2.54;57.44;101580.91;4953546;29;20036;-80
2022/03/18 03:03:43;;;;;;;37.83;20.63;;;;;;;2.50;57.64;101586.00;4953300;29;20136;-79
2022/03/18 03:08:53;;;;;;;33.83;19.50;;;;;;;2.39;56.98;101566.94;4953261;29;20090;-80
2022/03/18 03:11:21;;;;;;;35.72;19.30;;;;;;;2.44;57.27;101579.88;4953249;28;20043;-79
2022/03/18 03:13:46;;;;;;;35.63;18.02;;;;;;;2.40;56.89;101581.56;4952933;29;20047;-80
2022/03/18 03:16:12;;;;;;;35.53;19.83;;;;;;;2.39;56.63;101573.78;4953304;29;20126;-79
2022/03/18 03:18:38;;;;;;;35.10;20.00;;;;;;;2.38;56.79;101584.94;4937204;29;20031;-79
2022/03/18 03:21:03;;;;;;;32.63;18.95;;;;;;;2.35;57.07;101584.88;4952797;28;20042;-79
2022/03/18 03:23:28;;;;;;;29.98;17.73;;;;;;;2.35;56.86;101592.56;4953035;29;20036;-79
2022/03/18 03:25:54;;;;;;;30.20;17.45;;;;;;;2.25;56.58;101591.56;4936476;29;20524;-79
2022/03/18 03:28:20;;;;;;;33.83;19.75;;;;;;;2.30;56.43;101605.34;4918038;29;20032;-80
2022/03/18 03:30:46;;;;;;;38.38;20.83;;;;;;;2.33;56.33;101601.97;4933625;29;20107;-79
2022/03/18 03:33:12;;;;;;;37.25;18.95;;;;;;;2.32;55.98;101602.78;4933867;29;20039;-79
2022/03/18 03:35:38;;;;;;;29.13;18.38;;;;;;;2.28;56.08;101596.75;4917874;29;20055;-80
2022/03/18 03:38:07;;;;;;;31.05;18.50;;;;;;;2.32;56.26;101607.94;4917423;29;20040;-80
2022/03/18 03:40:33;;;;;;;32.95;18.15;;;;;;;2.27;56.45;101609.56;4917481;29;20046;-80
2022/03/18 03:42:58;;;;;;;30.77;17.75;;;;;;;2.26;55.95;101603.56;4933665;29;20106;-80
2022/03/18 03:45:24;;;;;;;29.88;17.58;;;;;;;2.25;55.94;101604.41;4933602;29;20032;-80
2022/03/18 03:47:50;;;;;;;29.05;18.17;;;;;;;2.25;55.79;101604.41;4917241;29;20452;-80
2022/03/18 03:50:15;;;;;;;28.10;18.02;;;;;;;2.28;55.63;101614.75;4917604;29;20027;-79
2022/03/18 03:52:42;;;;;;;31.13;17.40;;;;;;;2.30;55.75;101622.50;4929904;29;20511;-80
2022/03/18 03:55:09;;;;;;;37.35;19.23;;;;;;;2.29;55.52;101618.19;4934490;28;20039;-80
2022/03/18 03:57:34;;;;;;;32.83;17.70;;;;;;;2.23;55.79;101611.22;4935696;29;20027;-80
2022/03/18 04:00:01;;;;;;;28.67;17.50;;;;;;;2.27;55.47;101619.84;4934391;28;20380;-79
2022/03/18 04:02:27;;;;;;;35.45;17.75;;;;;;;2.30;54.91;101625.06;4935776;29;20039;-80
2022/03/18 04:04:53;;;;;;;30.60;18.13;;;;;;;2.31;55.36;101635.34;4934142;28;20479;-80
2022/03/18 04:07:19;;;;;;;35.47;19.25;;;;;;;2.33;55.32;101640.56;4935538;29;20038;-79
2022/03/18 04:09:46;;;;;;;33.47;19.27;;;;;;;2.25;54.88;101638.69;4934421;29;20506;-79
2022/03/18 04:12:12;;;;;;;33.22;18.45;;;;;;;2.26;55.18;101634.41;4934268;29;20047;-79
2022/03/18 04:14:38;;;;;;;37.28;18.02;;;;;;;2.28;55.00;101644.75;4934334;29;20036;-79
2022/03/18 04:17:03;;;;;;;33.63;21.60;;;;;;;2.22;55.28;101630.03;4951731;29;20035;-80
2022/03/18 04:19:29;;;;;;;34.10;17.70;;;;;;;2.24;55.18;101644.69;4952094;29;20047;-80
2022/03/18 04:21:55;;;;;;;29.58;17.70;;;;;;;2.16;55.24;101632.50;4951799;29;20442;-80
2022/03/18 04:24:20;;;;;;;30.52;18.42;;;;;;;2.22;54.89;101648.91;4935967;29;20175;-80
2022/03/18 04:26:45;;;;;;;31.65;17.98;;;;;;;2.23;54.60;101652.34;4935961;29;20063;-79
2022/03/18 04:29:12;;;;;;;28.70;18.27;;;;;;;2.28;54.36;101662.75;4951846;29;20122;-80
2022/03/18 04:31:39;;;;;;;28.55;17.85;;;;;;;2.09;54.42;101630.66;4936016;29;20035;-80
2022/03/18 04:34:04;;;;;;;30.00;17.83;;;;;;;2.24;54.56;101659.25;4951957;29;20065;-80
2022/03/18 04:36:30;;;;;;;27.92;17.08;;;;;;;2.27;54.10;101669.56;4951876;29;20499;-80
2022/03/18 04:38:55;;;;;;;28.17;17.35;;;;;;;2.18;54.53;101641.97;4935396;29;20035;-80
2022/03/18 04:41:21;;;;;;;35.25;21.13;;;;;;;2.24;54.47;101665.25;4935697;29;20043;-80
2022/03/18 04:43:46;;;;;;;34.15;20.27;;;;;;;2.14;54.73;101655.59;4935669;29;20373;-80
2022/03/18 04:46:12;;;;;;;34.33;18.63;;;;;;;2.18;53.63;101659.97;4951418;29;20083;-80
2022/03/18 04:48:37;;;;;;;35.83;22.33;;;;;;;2.17;54.06;101668.53;4935611;29;20054;-80
2022/03/18 04:51:04;;;;;;;223.27;89.72;;;;;;;2.18;53.91;101670.25;4935354;29;20395;-80
2022/03/18 04:53:29;;;;;;;114.80;39.67;;;;;;;2.21;53.87;101675.47;4933441;29;20046;-79
2022/03/18 04:55:55;;;;;;;52.97;22.98;;;;;;;2.20;54.17;101672.88;4934649;29;20479;-80
2022/03/18 04:58:20;;;;;;;66.80;34.47;;;;;;;2.20;54.32;101670.31;4932177;29;20047;-80
2022/03/18 05:00:45;;;;;;;53.28;28.73;;;;;;;2.18;54.54;101677.97;4916484;29;20035;-80
2022/03/18 05:03:11;;;;;;;35.13;18.65;;;;;;;2.19;53.67;101691.69;4932370;29;20074;-80
2022/03/18 05:05:38;;;;;;;32.05;17.92;;;;;;;2.17;53.57;101693.38;4932327;29;20059;-79
2022/03/18 05:08:03;;;;;;;32.25;18.10;;;;;;;2.17;53.72;101691.66;4931807;29;20452;-79
2022/03/18 05:10:29;;;;;;;33.42;18.75;;;;;;;2.08;53.67;101682.91;4932284;29;20044;-79
2022/03/18 05:12:55;;;;;;;43.53;21.27;;;;;;;2.23;53.88;101707.22;4931757;29;20424;-80
2022/03/18 05:15:21;;;;;;;76.55;32.17;;;;;;;2.16;54.17;101691.63;4916347;29;20043;-80
2022/03/18 05:17:51;;;;;;;43.88;20.83;;;;;;;2.13;53.40;101694.13;4916181;29;20463;-80
2022/03/18 05:20:18;;;;;;;35.83;19.33;;;;;;;2.18;53.69;101711.38;4932119;29;20040;-79
2022/03/18 05:22:47;;;;;;;38.78;18.58;;;;;;;2.15;54.06;101707.88;4916232;29;20035;-80
2022/03/18 05:25:13;;;;;;;38.17;18.48;;;;;;;2.17;53.91;101719.94;4932015;29;20108;-80
2022/03/18 05:27:44;;;;;;;33.15;17.02;;;;;;;2.13;54.00;101710.44;4916290;29;20105;-79
2022/03/18 05:30:12;;;;;;;36.33;17.75;;;;;;;2.05;53.82;101704.25;4948052;29;20050;-80
2022/03/18 05:32:38;;;;;;;33.08;17.50;;;;;;;2.04;53.55;101692.25;4951223;28;20047;-79
2022/03/18 05:35:05;;;;;;;36.83;18.35;;;;;;;2.17;53.37;101727.66;4934903;29;20031;-80
2022/03/18 05:37:30;;;;;;;31.48;18.02;;;;;;;2.15;54.13;101729.34;4951150;29;20093;-79
2022/03/18 05:39:55;;;;;;;33.55;17.95;;;;;;;2.04;53.68;101705.09;4950915;29;20036;-80
2022/03/18 05:42:21;;;;;;;35.55;18.27;;;;;;;2.13;53.88;101725.00;4951506;28;20031;-80
2022/03/18 05:44:46;;;;;;;33.10;19.23;;;;;;;2.02;53.85;101723.88;4932374;29;20460;-79
2022/03/18 05:47:12;;;;;;;31.88;18.75;;;;;;;2.09;53.75;101736.03;4934190;29;20123;-79
2022/03/18 05:49:37;;;;;;;34.85;19.92;;;;;;;2.11;53.54;101747.25;4934450;29;20028;-80
2022/03/18 05:52:02;;;;;;;35.08;19.38;;;;;;;1.98;53.44;101710.09;4933084;28;20122;-80
2022/03/18 05:54:28;;;;;;;30.23;17.38;;;;;;;2.16;53.02;101741.34;4933501;29;20507;-80
2022/03/18 05:56:54;;;;;;;62.70;33.67;;;;;;;2.20;53.42;101729.44;4932853;28;20375;-80
2022/03/18 05:59:21;;;;;;;171.98;71.95;;;;;;;2.38;52.91;101739.22;4934256;29;20028;-80
2022/03/18 06:01:47;;;;;;;141.20;48.70;;;;;;;2.47;52.98;101732.53;4934307;29;20484;-80
2022/03/18 06:04:14;;;;;;;59.33;24.50;;;;;;;2.62;52.25;101737.13;4934593;29;20036;-79
2022/03/18 06:06:41;;;;;;;50.13;23.08;;;;;;;2.82;51.97;101747.78;4937829;29;20383;-80
2022/03/18 06:11:51;;;;;;;32.38;18.52;;;;;;;3.13;51.30;101749.22;4937739;29;20122;-80
2022/03/18 06:14:19;;;;;;;36.38;20.85;;;;;;;3.20;50.60;101745.03;4936025;28;20114;-80
2022/03/18 06:16:49;;;;;;;33.42;19.17;;;;;;;3.34;50.22;101738.41;4937780;29;20528;-80
2022/03/18 06:19:18;;;;;;;42.00;22.87;;;;;;;3.51;49.46;101754.16;4937480;29;20034;-79
2022/03/18 06:21:45;;;;;;;34.10;19.55;;;;;;;3.67;49.02;101758.69;4937908;29;20278;-79
2022/03/18 06:24:11;;;;;;;40.53;20.30;;;;;;;3.87;49.04;101766.72;4937360;29;20369;-80
2022/03/18 06:26:36;;;;;;;36.65;20.33;;;;;;;4.12;48.59;101773.09;4936194;29;20031;-78
2022/03/18 06:29:03;;;;;;;34.03;20.60;;;;;;;4.50;48.66;101767.56;4935769;29;20522;-78
2022/03/18 06:31:29;;;;;;;38.40;23.10;;;;;;;4.88;47.29;101755.09;4937490;29;20024;-78
2022/03/18 06:33:54;;;;;;;33.58;21.98;;;;;;;5.65;46.18;101771.31;4937456;29;20046;-79
2022/03/18 06:36:20;;;;;;;43.50;24.17;;;;;;;6.59;43.70;101764.94;4935880;29;20034;-78
2022/03/18 06:38:45;;;;;;;30.30;17.55;;;;;;;6.92;42.45;101770.22;4935950;29;20078;-79
2022/03/18 06:41:11;;;;;;;43.38;26.42;;;;;;;6.88;41.99;101765.03;4936908;29;20384;-79
2022/03/18 06:43:36;;;;;;;38.05;22.58;;;;;;;6.92;42.18;101785.78;4937081;29;20038;-78
2022/03/18 06:46:02;;;;;;;44.35;26.15;;;;;;;7.21;42.10;101797.94;4935790;29;20579;-79
2022/03/18 06:48:28;;;;;;;31.58;19.13;;;;;;;7.31;41.26;101799.66;4935974;29;20040;-79
2022/03/18 06:50:53;;;;;;;29.70;18.60;;;;;;;7.41;41.02;101788.44;4936866;29;20030;-78
2022/03/18 06:53:18;;;;;;;33.85;20.65;;;;;;;7.78;40.42;101788.44;4936843;29;20086;-79
2022/03/18 06:55:44;;;;;;;34.85;20.85;;;;;;;9.07;38.62;101783.69;4935675;29;20024;-79
2022/03/18 06:58:09;;;;;;;32.47;19.45;;;;;;;9.65;36.26;101811.88;4936467;29;20090;-79
2022/03/18 07:00:39;;;;;;;36.88;20.38;;;;;;;9.26;36.22;101802.59;4936856;29;20031;-80
2022/03/18 07:03:05;;;;;;;31.98;18.75;;;;;;;8.57;36.41;101822.91;4936700;29;20562;-78
2022/03/18 07:05:32;;;;;;;44.10;23.98;;;;;;;8.45;36.91;101829.00;4936810;29;20023;-80
2022/03/18 07:07:58;;;;;;;34.72;21.42;;;;;;;8.08;36.81;101799.63;4935260;29;20603;-80
2022/03/18 07:10:23;;;;;;;41.53;22.65;;;;;;;8.41;37.16;101838.53;4935315;28;20110;-80
2022/03/18 07:12:49;;;;;;;42.47;22.10;;;;;;;8.65;36.83;101831.53;4935092;29;20043;-80
2022/03/18 07:15:14;;;;;;;33.92;19.60;;;;;;;8.89;36.28;101831.44;4934664;29;20080;-80
2022/03/18 07:17:59;;;;;;;33.33;19.90;;;;;;;9.09;36.18;101839.09;4936536;29;20048;-80
2022/03/18 07:20:30;;;;;;;29.63;19.25;;;;;;;9.03;35.30;101839.16;4936560;29;20032;-80
2022/03/18 07:23:15;;;;;;;27.23;16.90;;;;;;;9.20;35.50;101836.47;4935159;28;20031;-80
2022/03/18 07:25:47;;;;;;;34.80;20.17;;;;;;;8.87;35.32;101829.69;4935279;29;20028;-80
2022/03/18 07:28:14;;;;;;;31.92;20.23;;;;;;;8.65;35.70;101854.91;4936188;29;20138;-80
2022/03/18 07:30:41;;;;;;;56.35;31.80;;;;;;;8.52;35.94;101846.31;4935051;28;20507;-80
2022/03/18 07:33:07;;;;;;;33.25;19.90;;;;;;;8.29;36.11;101854.09;4934771;28;20483;-80
2022/03/18 07:35:34;;;;;;;32.33;18.50;;;;;;;8.03;36.24;101851.53;4934900;29;20114;-79
2022/03/18 07:38:00;;;;;;;31.95;19.65;;;;;;;8.12;36.67;101858.44;4935787;29;20038;-79
2022/03/18 07:40:25;;;;;;;31.30;19.15;;;;;;;8.23;36.53;101861.91;4935474;29;20035;-79
2022/03/18 07:42:53;;;;;;;30.95;18.92;;;;;;;8.40;36.20;101851.53;4936218;29;20506;-78
2022/03/18 07:45:21;;;;;;;30.95;18.73;;;;;;;8.54;36.01;101867.06;4935731;29;20038;-79
2022/03/18 07:47:51;;;;;;;32.63;18.73;;;;;;;8.53;36.37;101849.75;4936043;29;20028;-79
2022/03/18 07:50:21;;;;;;;30.13;18.80;;;;;;;8.64;35.88;101868.78;4935644;29;20027;-79
2022/03/18 07:52:50;;;;;;;31.47;18.27;;;;;;;8.64;35.70;101884.38;4936129;29;20242;-79
2022/03/18 07:55:18;;;;;;;32.70;18.85;;;;;;;8.55;36.07;101873.97;4966548;28;20783;-79
2022/03/18 07:57:43;;;;;;;28.95;17.98;;;;;;;8.44;35.88;101877.47;4935684;29;20031;-78
2022/03/18 08:00:11;;;;;;;33.60;20.85;;;;;;;8.85;36.07;101883.41;4935595;29;20034;-79
2022/03/18 08:02:38;;;;;;;27.67;18.90;;;;;;;9.10;36.05;101885.06;4966539;28;20439;-79
2022/03/18 08:05:03;;;;;;;33.10;19.00;;;;;;;9.29;36.28;101883.22;4962842;28;20031;-79
2022/03/18 08:07:29;;;;;;;31.05;18.83;;;;;;;9.57;35.70;101880.44;4935629;29;20035;-78
2022/03/18 08:09:54;;;;;;;29.25;19.40;;;;;;;9.72;35.37;101885.53;4966578;28;20083;-79
2022/03/18 08:12:20;;;;;;;33.97;20.52;;;;;;;9.70;35.21;101875.13;4935418;29;20075;-79
2022/03/18 08:14:45;;;;;;;30.63;21.15;;;;;;;9.84;34.83;101888.03;4935217;29;20036;-79
2022/03/18 08:17:11;;;;;;;29.73;19.27;;;;;;;9.69;34.81;101877.72;4935148;29;20395;-79
2022/03/18 08:19:36;;;;;;;34.20;19.88;;;;;;;9.81;35.10;101900.22;4935202;29;20031;-80
2022/03/18 08:22:04;;;;;;;33.10;19.08;;;;;;;9.77;34.76;101888.94;4935055;29;20020;-79
2022/03/18 08:24:30;;;;;;;36.75;22.13;;;;;;;9.90;35.02;101908.84;4934168;28;20035;-80
2022/03/18 08:26:55;;;;;;;49.22;28.95;;;;;;;9.62;35.08;101904.69;4934784;29;20039;-79
2022/03/18 08:29:20;;;;;;;63.78;36.63;;;;;;;9.38;35.42;101910.91;4933611;28;20075;-79
2022/03/18 08:31:46;;;;;;;31.75;19.98;;;;;;;9.08;35.48;101915.38;4933893;28;20035;-79
2022/03/18 08:34:11;;;;;;;36.40;21.83;;;;;;;8.74;36.23;101907.69;4935218;29;20071;-79
2022/03/18 08:36:36;;;;;;;32.53;20.77;;;;;;;8.60;36.73;101906.88;4934093;29;20492;-79
2022/03/18 08:39:02;;;;;;;37.17;23.17;;;;;;;8.61;37.43;101920.72;4935018;29;20023;-79
2022/03/18 08:41:28;;;;;;;39.20;23.27;;;;;;;8.48;37.85;101925.09;4935191;29;20036;-79
2022/03/18 08:43:53;;;;;;;34.60;22.48;;;;;;;8.39;38.31;101918.19;4933769;28;20508;-79
2022/03/18 08:46:18;;;;;;;38.03;23.35;;;;;;;8.48;38.31;101931.16;4933524;28;20023;-80
2022/03/18 08:48:44;;;;;;;38.80;22.77;;;;;;;8.52;38.24;101938.94;4933622;29;20035;-80
2022/03/18 08:51:10;;;;;;;42.85;27.48;;;;;;;8.45;38.16;101932.88;4934891;29;20033;-79
2022/03/18 08:53:37;;;;;;;42.67;26.83;;;;;;;8.49;38.36;101921.63;4933772;29;20031;-79
2022/03/18 08:56:03;;;;;;;34.67;23.65;;;;;;;8.61;37.84;101941.50;4933655;28;20031;-79
2022/03/18 08:58:28;;;;;;;44.25;26.90;;;;;;;8.58;37.39;101944.97;4933206;29;20440;-79
2022/03/18 09:00:53;;;;;;;36.97;21.40;;;;;;;8.46;36.99;101929.41;4933554;29;20123;-79
2022/03/18 09:03:19;;;;;;;32.97;21.25;;;;;;;8.44;36.80;101947.59;4934819;29;20035;-79
2022/03/18 09:05:44;;;;;;;36.33;22.17;;;;;;;8.42;36.65;101951.91;4935204;29;20384;-79
2022/03/18 09:08:10;;;;;;;36.33;23.95;;;;;;;8.60;37.13;101943.25;4933093;29;20036;-80
2022/03/18 09:10:35;;;;;;;38.10;24.60;;;;;;;8.83;37.16;101963.13;4933381;28;20539;-79
2022/03/18 09:13:01;;;;;;;32.70;20.90;;;;;;;8.72;36.61;101957.94;4934531;29;20504;-79
2022/03/18 09:15:28;;;;;;;32.85;21.15;;;;;;;8.49;36.39;101963.16;4934447;29;20063;-79
2022/03/18 09:17:54;;;;;;;39.58;24.70;;;;;;;8.18;37.58;101945.00;4934621;29;20024;-79
2022/03/18 09:20:20;;;;;;;31.90;21.73;;;;;;;8.20;38.65;101963.16;4934476;29;20495;-79
2022/03/18 09:22:45;;;;;;;32.75;21.85;;;;;;;8.15;38.63;101959.69;4934749;29;20103;-79
2022/03/18 09:25:11;;;;;;;34.05;22.00;;;;;;;8.17;38.59;101970.94;4934378;29;20028;-79
2022/03/18 09:27:37;;;;;;;32.10;21.88;;;;;;;8.19;38.88;101951.91;4934546;29;20531;-80
2022/03/18 09:30:03;;;;;;;55.20;30.15;;;;;;;8.36;38.63;101964.03;4933346;29;20031;-79
2022/03/18 09:32:30;;;;;;;34.95;22.73;;;;;;;8.23;38.76;101966.63;4934198;29;20059;-79
2022/03/18 09:34:56;;;;;;;33.20;21.45;;;;;;;8.06;39.14;101962.28;4933434;29;20027;-79
2022/03/18 09:37:22;;;;;;;37.35;23.63;;;;;;;7.96;39.44;101983.03;4933047;29;20063;-79
2022/03/18 09:39:47;;;;;;;32.63;22.88;;;;;;;7.89;40.17;101977.84;4935608;29;20031;-79
2022/03/18 09:42:13;;;;;;;32.85;22.13;;;;;;;7.83;40.09;101965.69;4937140;29;20389;-79
2022/03/18 09:44:39;;;;;;;37.47;23.55;;;;;;;7.84;40.56;101983.03;4936143;28;20039;-79
2022/03/18 09:47:06;;;;;;;35.97;22.38;;;;;;;7.73;40.42;101989.91;4919448;29;20399;-79
2022/03/18 09:49:33;;;;;;;33.83;22.13;;;;;;;7.56;40.28;101987.25;4935337;29;20207;-79
2022/03/18 09:51:59;;;;;;;37.42;23.35;;;;;;;7.42;40.71;101986.34;4919418;29;20043;-79
2022/03/18 09:54:29;;;;;;;35.08;23.27;;;;;;;7.37;41.18;101991.50;4935420;29;20034;-79
2022/03/18 09:56:55;;;;;;;39.38;23.27;;;;;;;7.25;41.44;101981.09;4935569;29;20040;-79
2022/03/18 09:59:26;;;;;;;36.53;24.17;;;;;;;7.30;42.00;101983.72;4935296;29;20042;-79
2022/03/18 10:02:25;;;;;;;34.90;22.88;;;;;;;7.50;41.74;102001.09;4935464;29;20036;-79
2022/03/18 10:04:53;;;;;;;33.50;22.25;;;;;;;7.52;42.13;101993.28;4919546;29;20041;-79
2022/03/18 10:07:18;;;;;;;31.75;21.50;;;;;;;7.54;41.45;101982.91;4919098;29;20040;-79
2022/03/18 10:09:44;;;;;;;34.88;22.65;;;;;;;7.74;42.12;102000.28;4935357;29;20465;-79
2022/03/18 10:12:27;;;;;;;34.90;23.17;;;;;;;7.82;42.07;101984.72;4918833;29;20143;-80
2022/03/18 10:15:06;;;;;;;36.90;23.15;;;;;;;7.94;40.77;102002.91;4935352;29;20036;-79
2022/03/18 10:18:04;;;;;;;34.20;22.17;;;;;;;8.00;40.71;102013.28;4935490;29;20134;-79
2022/03/18 10:20:35;;;;;;;31.67;22.90;;;;;;;7.87;39.97;101993.38;4878344;29;20115;-79
2022/03/18 10:23:09;;;;;;;33.55;22.92;;;;;;;7.95;40.58;102015.03;4878563;29;20041;-79
2022/03/18 10:25:53;;;;;;;33.53;21.73;;;;;;;7.99;39.97;102005.53;4878937;29;20032;-79
2022/03/18 10:28:40;;;;;;;36.53;23.77;;;;;;;8.08;39.88;102008.13;4878043;29;20052;-79
2022/03/18 10:31:11;;;;;;;36.85;23.10;;;;;;;8.08;39.89;102000.34;4862861;29;20451;-79
2022/03/18 10:39:35;;;;;;;34.05;22.58;;;;;;;8.28;39.05;102002.97;4878147;29;20077;-79
2022/03/18 10:42:09;;;;;;;44.60;24.05;;;;;;;8.24;38.10;102004.69;4877738;29;20049;-80
2022/03/18 10:44:58;;;;;;;49.95;28.25;;;;;;;8.34;38.21;102021.13;4862276;29;20049;-79
2022/03/18 10:47:42;;;;;;;29.65;20.42;;;;;;;8.35;37.99;102002.09;4877805;29;20415;-79
2022/03/18 10:50:09;;;;;;;31.67;21.67;;;;;;;8.49;38.17;102010.78;4877183;29;20056;-79
2022/03/18 10:52:47;;;;;;;42.42;26.75;;;;;;;8.44;38.22;102009.06;4862425;29;20048;-79
2022/03/18 10:55:25;;;;;;;29.58;20.92;;;;;;;8.25;37.83;101989.97;4877808;29;20041;-79
2022/03/18 10:57:55;;;;;;;37.55;22.63;;;;;;;8.32;38.21;101999.50;4877735;29;20041;-80
2022/03/18 11:00:23;;;;;;;31.20;20.70;;;;;;;8.37;37.74;102015.97;4912064;29;20127;-79
2022/03/18 11:03:00;;;;;;;39.00;23.23;;;;;;;8.34;37.97;102010.75;4915360;29;20057;-79
2022/03/18 11:05:33;;;;;;;30.20;21.63;;;;;;;8.41;37.94;101998.66;4899387;29;20162;-79
2022/03/18 11:08:05;;;;;;;34.70;24.02;;;;;;;8.57;38.16;102018.56;4899478;29;20044;-79
2022/03/18 11:13:21;;;;;;;30.42;20.42;;;;;;;8.67;38.56;102015.09;4928108;29;20419;-79
2022/03/18 11:15:49;;;;;;;31.38;20.90;;;;;;;8.78;38.85;102009.91;4936666;29;20091;-80
2022/03/18 11:18:14;;;;;;;30.40;21.27;;;;;;;8.91;38.53;102016.81;4936274;29;20122;-79
2022/03/18 11:20:43;;;;;;;31.25;21.42;;;;;;;8.89;38.22;102015.06;4936520;29;20059;-79
2022/03/18 11:23:17;;;;;;;28.67;20.13;;;;;;;8.83;37.79;102004.69;4936569;29;20038;-79
2022/03/18 11:25:45;;;;;;;30.02;20.55;;;;;;;8.93;38.14;102015.09;4936358;29;20602;-79
2022/03/18 11:28:15;;;;;;;29.48;20.50;;;;;;;8.92;37.73;102023.72;4936425;29;20036;-79
2022/03/18 11:30:41;;;;;;;30.77;20.17;;;;;;;8.91;37.63;102021.13;4935119;28;20063;-79
2022/03/18 11:33:10;;;;;;;35.58;20.65;;;;;;;8.91;37.30;102029.78;4934897;28;20498;-79